logo
App data

Farm Frenzy 3

Manage five farms around the world and try your hand at penguin-breeding and jewelry-making in Farm Frenzy 3! Features 95 outrageously fun levels, 30 wacky animals and more upgrades than there are ears in a corn field!
Store | Hub | SteamDB | Site
Developer: Alawar Publisher: iWin
Genre: Casual
Languages: English
Tags: Casual (48), Puzzle (26), Agriculture (26), Time Management (6)
Category: Single-player
Release date: Sep 11, 2009
Price: $9.99
Owners: 0 .. 20,000
Followers: 126
Peak concurrent players yesterday: 3
YouTube stats: 70 views and 9 comments for videos uploaded last week, 0 new videos uploaded yesterday.

Steam Spy is still in beta, so expect major bugs.

Owners data:

Access restricted.

This feature is only available to users with special access rights. Sorry.

If you want to proceed, you need to register or log in first and then back Steam Spy on Patreon. Look for Indie or Pro pledge.

Don't forget to use the same email as on Steam Spy!

Audience in 2 weeks:

Access restricted.

This feature is only available to users with special access rights. Sorry.

If you want to proceed, you need to register or log in first and then back Steam Spy on Patreon. Look for Indie or Pro pledge.

Don't forget to use the same email as on Steam Spy!

Peak daily concurrent players:

CCU data courtesy of SteamDB. Used with permission.

Hourly concurrent players:

Daily Twitch stats:

Hourly Twitch stats:

YouTube:

The views data is based on top 50 videos uploaded last week. Actual number of views might be more than the number shown.

The displayed number of videos uploaded yesterday is limited to 50, so if there were more videos uploaded, the number will still show 50.

If the game has commonly used word as its name (like "FEAR" or "Volume") its number of Youtube views might be wrong.

Games similar to this one:

# Game Release date
Price
Score rank
(Userscore / Metascore)
Owners
Players
Playtime (Median)
1 Flowers -Le volume sur printemps- Aug 17, 2016 $19.9997% (97%)0 .. 20,0000%00:00 (00:00)
2 Lost Lands: The Four Horsemen Jul 14, 2015 $6.9995% (96%)0 .. 20,0000%00:00 (00:00)
3 Eventide: Slavic Fable Jan 28, 2016 $9.9993% (95%)50,000 .. 100,0000%00:00 (00:00)
4 Legends of Atlantis: Exodus Apr 9, 2012 $6.99N/A (N/A)0 .. 20,0000%00:00 (00:00)
5 Tradewinds Classics Jul 17, 2009 $4.99N/A (N/A)0 .. 20,0000%00:00 (00:00)
6 Peggle Nights Oct 15, 2008 $4.9990% (94%/76%)200,000 .. 500,0001.73%00:17 (00:15)
7 Chuzzle Deluxe Aug 30, 2006 $4.9987% (93%)50,000 .. 100,0000%00:00 (00:00)
8 Farm Frenzy 2 Aug 27, 2008 $4.99N/A (N/A)0 .. 20,0000%00:00 (00:00)
9 YOU DON’T KNOW JACK Feb 8, 2011 N/A84% (92%/71%)0 .. 20,0000%00:00 (00:00)
10 Kitty Cat: Jigsaw Puzzles Jul 18, 2016 $0.9984% (92%)50,000 .. 100,0000%00:00 (00:00)
11 Putt-Putt and Pep's Balloon-o-Rama Jan 1, 1996 $4.99N/A (N/A)0 .. 20,0000%00:00 (00:00)
12 Princess Maker 2 Refine Sep 28, 2016 $19.9984% (92%)20,000 .. 50,0000%00:00 (00:00)
13 Grim Legends 3: The Dark City Jun 2, 2016 $9.9980% (91%)20,000 .. 50,0000%00:00 (00:00)
14 Hidden Object Bundle 4 in 1 Jun 1, 2014 $7.9980% (91%)20,000 .. 50,0001.69%04:05 (01:21)
15 Gnomes Garden 2 May 18, 2016 $4.99N/A (N/A)20,000 .. 50,0000%00:00 (00:00)
16 Super Jagua Sep 15, 2016 $0.9977% (90%)0 .. 20,0004.35%00:21 (00:07)
17 Stikbold! A Dodgeball Adventure Apr 1, 2016 $9.9971% (88%)50,000 .. 100,0001.83%00:37 (00:36)
18 Shufflepuck Cantina Deluxe Dec 6, 2013 $9.9971% (88%)100,000 .. 200,0000%00:00 (00:00)
19 Luxor 3 Nov 13, 2007 $9.9971% (88%)20,000 .. 50,0000%00:00 (00:00)
20 Puzzler World May 28, 2010 $4.9971% (88%)50,000 .. 100,0000%00:00 (00:00)
21 Delicious! Pretty Girls Mahjong Solitaire Oct 14, 2016 $0.9968% (87%)50,000 .. 100,0000.67%01:33 (00:31)
22 Alice's Patchwork Mar 3, 2016 $4.9968% (87%)20,000 .. 50,0000.58%03:49 (01:16)
23 Burnout Paradise: The Ultimate Box Feb 3, 2009 $19.9968% (87%/87%)1,000,000 .. 2,000,0000.48%00:35 (00:12)
24 Lost Grimoires: Stolen Kingdom Nov 10, 2016 $9.9966% (86%)0 .. 20,0000%00:00 (00:00)
25 Brink of Consciousness: The Lonely Hearts Murders Nov 24, 2014 $9.9963% (85%)0 .. 20,0000%00:00 (00:00)
26 Plant Tycoon Sep 27, 2007 $9.9963% (85%)0 .. 20,0000%00:00 (00:00)
27 Hidden Object 6-in-1 bundle Mar 16, 2016 $11.9960% (84%)20,000 .. 50,0000%00:00 (00:00)
28 SimpleRockets Jun 3, 2015 $7.9960% (84%)20,000 .. 50,0000%00:00 (00:00)
29 Space Codex May 9, 2016 $0.4960% (84%)100,000 .. 200,0000%00:00 (00:00)
30 Little Racers STREET Feb 6, 2014 $5.9960% (84%/62%)100,000 .. 200,0001.68%02:42 (03:51)
31 House of Snark 6-in-1 Bundle Jul 17, 2016 $11.99N/A (N/A)0 .. 20,0000%00:00 (00:00)
32 LUXOR: Mah Jong Jul 13, 2009 $9.9960% (84%)50,000 .. 100,0000%00:00 (00:00)
33 Gnomes Garden Dec 18, 2015 $4.9958% (83%)50,000 .. 100,0000%00:00 (00:00)
34 My Riding Stables: Life with Horses Mar 27, 2014 $14.9953% (81%)0 .. 20,0000%00:00 (00:00)
35 LogicBots Feb 8, 2017 $19.9951% (80%)0 .. 20,0000%00:00 (00:00)
36 7 Wonders: Treasures of Seven Nov 14, 2008 $9.9951% (80%)20,000 .. 50,0000%00:00 (00:00)
37 Rube Works: The Official Rube Goldberg Invention Game Apr 19, 2014 $4.99N/A (N/A)0 .. 20,0000%00:00 (00:00)
38 Crash Dive Jul 6, 2015 $6.9951% (80%)0 .. 20,0000%00:00 (00:00)
39 The Wizard's Pen Sep 16, 2008 $4.99N/A (N/A)20,000 .. 50,0000%00:00 (00:00)
40 Rotastic Oct 11, 2012 $9.99N/A (N/A)0 .. 20,0000%00:00 (00:00)
41 Sea Legends: Phantasmal Light Collector's Edition Jan 15, 2012 $4.9951% (80%)50,000 .. 100,0000%00:00 (00:00)
42 Combat Wings: Battle of Britain Oct 14, 2009 $4.9949% (79%)100,000 .. 200,0000%00:00 (00:00)
43 Qvadriga Jun 13, 2014 $19.9949% (79%/72%)20,000 .. 50,0000%00:00 (00:00)
44 Steel Armor: Blaze of War Mar 5, 2015 $29.9949% (79%/70%)0 .. 20,0008.33%01:07 (00:22)
45 Buzz Aldrin's Space Program Manager Oct 31, 2014 $29.9947% (78%/62%)0 .. 20,0000%00:00 (00:00)
46 Echelon: Wind Warriors Feb 3, 2004 $3.9947% (78%/63%)0 .. 20,0000%00:00 (00:00)
47 Typer Shark! Deluxe Aug 30, 2006 $4.9943% (76%)20,000 .. 50,0000%00:00 (00:00)
48 Hotel Dash Suite Success Dec 24, 2009 $6.99N/A (N/A)0 .. 20,0000%00:00 (00:00)
49 Mystery Case Files: Madame Fate Dec 14, 2007 $6.99N/A (N/A)0 .. 20,0000%00:00 (00:00)
50 Virtual Villagers: The Lost Children Feb 14, 2007 $9.99N/A (N/A)0 .. 20,0000%00:00 (00:00)
51 Amazing Adventures Around the World Sep 17, 2008 $4.99N/A (N/A)20,000 .. 50,0000%00:00 (00:00)
52 Toilet Tycoon Mar 1, 2000 $4.9941% (75%)0 .. 20,0000%00:00 (00:00)
53 Evolution Planet: Gold Edition Jul 7, 2016 $4.99N/A (N/A)0 .. 20,0000%00:00 (00:00)
54 Teddy Floppy Ear - The Race May 22, 2015 $4.9939% (74%)100,000 .. 200,0000.34%00:02 (00:00)
55 Cooking Dash Aug 12, 2009 $9.99N/A (N/A)0 .. 20,0000%00:00 (00:00)
56 Ski Region Simulator - Gold Edition Jan 16, 2013 $8.9938% (73%)20,000 .. 50,0003.45%00:03 (00:01)
57 Amazing Adventures The Lost Tomb Nov 5, 2007 $4.99N/A (N/A)20,000 .. 50,0000%00:00 (00:00)
58 Cake Mania Collection Jul 17, 2009 $14.99N/A (N/A)0 .. 20,0000%00:00 (00:00)
59 Cake Mania Main Street Feb 16, 2010 $6.99N/A (N/A)0 .. 20,0000%00:00 (00:00)
60 IL-2 Sturmovik: Battle of Stalingrad Oct 22, 2014 $49.9934% (71%/74%)50,000 .. 100,00013.73%04:33 (04:03)
61 aerofly RC 7 Nov 6, 2014 $39.9934% (71%)0 .. 20,0000%00:00 (00:00)
62 Democracy 3 Africa Apr 12, 2016 $14.9934% (71%)50,000 .. 100,0001.89%09:15 (03:05)
63 Football Mogul 2014 Sep 4, 2013 $0.99N/A (N/A)20,000 .. 50,0000%00:00 (00:00)
64 MiniDrivers Aug 20, 2015 $5.9933% (70%)20,000 .. 50,0000%00:00 (00:00)
65 Splendor Sep 17, 2015 $9.9931% (69%)0 .. 20,00012.82%00:10 (00:13)
66 StuntMANIA Reloaded Nov 13, 2014 $4.9931% (69%)20,000 .. 50,0000%00:00 (00:00)
67 Little Farm Jun 10, 2008 $9.9929% (68%)20,000 .. 50,0000%00:00 (00:00)
68 Chocolatier: Decadence by Design Aug 12, 2009 $9.9929% (68%)0 .. 20,0000%00:00 (00:00)
69 Chronicle Keepers: The Dreaming Garden Jun 11, 2015 $4.9928% (67%)0 .. 20,0000%00:00 (00:00)
70 Twisted Lands Trilogy: Collector's Edition Oct 28, 2015 $19.9926% (66%)20,000 .. 50,0000%00:00 (00:00)
71 Eagle Flight Dec 20, 2016 $19.9926% (66%/74%)0 .. 20,0000%00:00 (00:00)
72 Scrabble Jun 10, 2013 $9.99N/A (N/A)0 .. 20,0000%00:00 (00:00)
73 Farming 6-in-1 bundle Jun 2, 2016 $5.99N/A (N/A)0 .. 20,0000%00:00 (00:00)
74 Obliteracers Feb 23, 2016 $14.9925% (65%/78%)20,000 .. 50,0000%00:00 (00:00)
75 Castle: Never Judge a Book by its Cover Jul 9, 2013 N/A24% (64%)50,000 .. 100,0000%00:00 (00:00)
76 Pro Cycling Manager 2014 Jun 19, 2014 $9.9924% (64%)20,000 .. 50,0000%00:00 (00:00)
77 Mahjong Pretty Girls Battle : School Girls Edition Jun 22, 2015 $14.9924% (64%)20,000 .. 50,0000%00:00 (00:00)
78 City Life 2008 Jul 18, 2008 $9.9924% (64%)20,000 .. 50,0000%00:00 (00:00)
79 Meridian: Age of Invention Jan 28, 2013 $2.9923% (63%)20,000 .. 50,0001.12%01:34 (00:31)
80 PAC-MAN CHAMPIONSHIP EDITION 2 Sep 13, 2016 $12.9923% (63%)50,000 .. 100,0000%00:00 (00:00)
81 Trackmania Turbo Mar 24, 2016 $39.9922% (62%)50,000 .. 100,0000%00:00 (00:00)
82 Gems of the Aztecs Apr 22, 2016 $4.9920% (61%)50,000 .. 100,0000%00:00 (00:00)
83 Football Club Simulator - FCS NS#19 Nov 30, 2018 $2.9820% (61%)0 .. 20,0002.86%20:39 (06:53)
84 Railroad Pioneer Oct 17, 2003 $4.9920% (61%/50%)0 .. 20,0000%00:00 (00:00)
85 Aerofly FS 1 Flight Simulator Oct 17, 2012 $19.9920% (61%)0 .. 20,0000%00:00 (00:00)
86 DinerTown Tycoon Sep 30, 2009 $9.99N/A (N/A)0 .. 20,0000%00:00 (00:00)
87 Solitaire Christmas. Match 2 Cards Dec 24, 2015 $4.9920% (61%)50,000 .. 100,0000.54%01:07 (00:22)
88 Zooloretto Nov 1, 2011 $2.99N/A (N/A)0 .. 20,0000%00:00 (00:00)
89 Contract With The Devil Dec 11, 2015 $4.9918% (59%)20,000 .. 50,0000%00:00 (00:00)
90 Hacker Evolution: Untold Sep 14, 2010 $4.9917% (58%)200,000 .. 500,0000%00:00 (00:00)
91 Trackday Manager Mar 31, 2016 N/A15% (56%)0 .. 20,0000%00:00 (00:00)
92 Riding Star - Horse Championship! Mar 27, 2014 $9.99N/A (N/A)0 .. 20,0000%00:00 (00:00)
93 Mystery Masters: Psycho Train Deluxe Edition Feb 3, 2015 $9.9915% (56%)20,000 .. 50,0001.14%10:14 (06:49)
94 Luxor: Quest for the Afterlife Dec 15, 2008 $9.99N/A (N/A)0 .. 20,0000%00:00 (00:00)
95 Cities XL Platinum Feb 6, 2013 $9.9915% (55%)200,000 .. 500,0000%00:00 (00:00)
96 Ant Queen Jun 15, 2016 $3.9914% (54%)0 .. 20,0000%00:00 (00:00)
97 Pacific Storm Allies May 25, 2007 $7.9913% (53%/60%)50,000 .. 100,0000%00:00 (00:00)
98 My Best Friends - Cats & Dogs Mar 27, 2014 $14.99N/A (N/A)0 .. 20,0000%00:00 (00:00)
99 Chess Knight 2 Sep 11, 2016 $2.9911% (50%)50,000 .. 100,0000.51%00:04 (00:01)
100 My Riding Stables: Your Horse world Mar 28, 2014 $14.99N/A (N/A)0 .. 20,0000%00:00 (00:00)
101 Ludo Supremo Jun 8, 2016 $1.9911% (50%)20,000 .. 50,0000%00:00 (00:00)
102 Shadows: Price For Our Sins Bonus Edition Mar 21, 2013 $9.9910% (49%)50,000 .. 100,0000%00:00 (00:00)
103 300 Dwarves Jun 17, 2013 $6.9910% (49%)0 .. 20,0000%00:00 (00:00)
104 Pure Pool Jul 31, 2014 $9.9910% (48%/68%)0 .. 20,0000%00:00 (00:00)
105 Ghost Encounters: Deadwood - Collector's Edition Mar 13, 2015 $4.999% (47%)0 .. 20,0000%00:00 (00:00)
106 Cosplay Maker Dec 10, 2015 $14.99N/A (N/A)0 .. 20,0000%00:00 (00:00)
107 Lords of Football Apr 5, 2013 $14.999% (47%/52%)20,000 .. 50,0003.85%00:18 (00:06)
108 Transport Giant Jun 8, 2004 $9.999% (46%)20,000 .. 50,0000%00:00 (00:00)
109 Professional Farmer 2014 Nov 27, 2013 $14.998% (45%)200,000 .. 500,0000%00:00 (00:00)
110 Silent Hunter 5: Battle of the Atlantic Mar 2010 $9.997% (41%/62%)100,000 .. 200,0001.64%00:53 (00:17)
111 Echelon Apr 15, 2001 $3.996% (39%/70%)0 .. 20,0000%00:00 (00:00)
112 Princess Isabella: The Rise of an Heir May 12, 2016 $9.995% (38%)20,000 .. 50,0000%00:00 (00:00)
113 Airport Firefighters - The Simulation May 13, 2015 $14.995% (35%)20,000 .. 50,0000%00:00 (00:00)
114 Industry Empire Jul 30, 2014 $19.993% (31%)20,000 .. 50,0000%00:00 (00:00)
115 Fill Up! Feb 17, 2016 $2.99N/A (N/A)0 .. 20,0000%00:00 (00:00)
116 Driving School Simulator Sep 25, 2014 $14.992% (20%)0 .. 20,0000%00:00 (00:00)
117 Switch Galaxy Ultra Nov 20, 2015 $9.991% (13%)20,000 .. 50,0001.2%03:16 (01:05)
118 Luxury Hotel Emporium Aug 7, 2015 $4.99N/A (N/A)0 .. 20,0000%00:00 (00:00)
119 Black Viper: Sophia's Fate Sep 5, 2014 $9.991% (8%)0 .. 20,0000%00:00 (00:00)
120 Nokori Mar 25, 2016 $0.99N/A (N/A)0 .. 20,0000%00:00 (00:00)
121 Discovery! A Seek and Find Adventure Jul 29, 2008 $9.99N/A (N/A)0 .. 20,0000%00:00 (00:00)
122 Barnyard Mahjong 3 Jul 29, 2016 $1.99N/A (N/A)50,000 .. 100,0000.5%00:04 (00:01)
123 Dessert Storm Oct 23, 2016 $0.99N/A (N/A)50,000 .. 100,0000.49%00:04 (00:01)
124 The Hidden Dragon Jul 26, 2016 $2.99N/A (N/A)0 .. 20,0000%00:00 (00:00)
125 Adventures of Robinson Crusoe Jan 9, 2015 $9.99N/A (N/A)20,000 .. 50,0000%00:00 (00:00)
126 Bubble Blowout Oct 24, 2016 $0.99N/A (N/A)50,000 .. 100,0000.51%00:04 (00:01)
127 Block Blowout Oct 26, 2016 $0.99N/A (N/A)50,000 .. 100,0000.5%00:04 (00:01)
128 My Pet Hotel Mar 27, 2014 $14.99N/A (N/A)0 .. 20,0000%00:00 (00:00)
129 Fantastic 4 In A Row 2 Aug 15, 2016 $0.99N/A (N/A)50,000 .. 100,0000%00:00 (00:00)
130 Them - The Summoning May 16, 2014 $4.99N/A (N/A)0 .. 20,0000%00:00 (00:00)
131 Escape The Past Sep 14, 2016 $4.99N/A (N/A)0 .. 20,0000%00:00 (00:00)
132 Rush for gold: California Mar 9, 2016 $3.99N/A (N/A)20,000 .. 50,0000%00:00 (00:00)
133 Tropical Fish Shop 2 Feb 10, 2012 $3.99N/A (N/A)0 .. 20,0000.28%04:31 (01:30)
134 Lost Legends: The Weeping Woman Collector's Edition Oct 21, 2015 $14.99N/A (N/A)20,000 .. 50,0000%00:00 (00:00)

Tags over time:

Access restricted.

This feature is only available to users with special access rights. Sorry.

If you want to proceed, you need to register or log in first and then back Steam Spy on Patreon. Look for Indie or Pro pledge.

Don't forget to use the same email as on Steam Spy!

Owners of this game also own:

Access restricted.

This feature is only available to users with special access rights. Sorry.

If you want to proceed, you need to register or log in first and then back Steam Spy on Patreon. Look for Indie or Pro pledge.

Don't forget to use the same email as on Steam Spy!

Playtime distribution:

Access restricted.

This feature is only available to users with special access rights. Sorry.

If you want to proceed, you need to register or log in first and then back Steam Spy on Patreon. Look for Indie or Pro pledge.

Don't forget to use the same email as on Steam Spy!

Playtime (2 weeks):

Access restricted.

This feature is only available to users with special access rights. Sorry.

If you want to proceed, you need to register or log in first and then back Steam Spy on Patreon. Look for Indie or Pro pledge.

Don't forget to use the same email as on Steam Spy!

User reviews:

Login required.

Please register or log in to see this information.